createdAt,value
2023-02-16T00:02:07.203Z,70.79
2023-02-16T00:07:11.109Z,70.91
2023-02-16T00:12:53.479Z,70.08
2023-02-16T00:18:00.424Z,70.35
2023-02-16T00:23:04.272Z,70.75
2023-02-16T00:28:19.954Z,70.65
2023-02-16T00:33:23.751Z,70.86
2023-02-16T00:38:27.741Z,69.95
2023-02-16T00:43:32.749Z,70.43
2023-02-16T00:48:37.642Z,70.72
2023-02-16T00:53:41.526Z,70.50
2023-02-16T00:58:45.510Z,70.46
2023-02-16T01:03:49.483Z,70.74
2023-02-16T01:09:19.539Z,70.60
2023-02-16T01:14:23.383Z,70.12
2023-02-16T01:19:27.802Z,70.17
2023-02-16T01:24:31.692Z,70.68
2023-02-16T01:29:36.124Z,70.97
2023-02-16T01:34:40.098Z,70.70
2023-02-16T01:39:44.065Z,70.20
2023-02-16T01:44:53.752Z,70.56
2023-02-16T01:50:02.126Z,70.86
2023-02-16T01:55:19.713Z,70.68
2023-02-16T02:00:32.367Z,70.83
2023-02-16T02:05:38.135Z,70.58
2023-02-16T02:11:07.155Z,70.40
2023-02-16T02:16:12.611Z,70.35
2023-02-16T02:21:59.237Z,70.69
2023-02-16T02:27:21.166Z,70.71
2023-02-16T02:32:37.818Z,70.93
2023-02-16T02:38:16.986Z,70.51
2023-02-16T02:43:20.830Z,70.53
2023-02-16T02:48:25.301Z,70.34
2023-02-16T02:53:30.159Z,70.06
2023-02-16T02:59:13.022Z,70.54
2023-02-16T03:04:23.680Z,69.96
2023-02-16T03:09:28.552Z,70.36
2023-02-16T03:14:31.982Z,70.39
2023-02-16T03:19:54.236Z,70.76
2023-02-16T03:25:16.399Z,70.73
2023-02-16T03:30:22.809Z,69.82
2023-02-16T03:35:27.111Z,70.23
2023-02-16T03:40:35.858Z,70.25
2023-02-16T03:45:43.235Z,70.34
2023-02-16T03:50:47.487Z,70.19
2023-02-16T03:55:51.323Z,70.50
2023-02-16T04:00:55.851Z,70.03
2023-02-16T04:05:59.778Z,69.80
2023-02-16T04:11:23.565Z,69.86
2023-02-16T04:16:27.585Z,69.80
2023-02-16T04:21:31.507Z,69.67
2023-02-16T04:26:35.988Z,69.50
2023-02-16T04:31:40.141Z,70.18
2023-02-16T04:36:44.141Z,69.65
2023-02-16T04:41:48.322Z,69.85
2023-02-16T04:46:52.220Z,70.00
2023-02-16T04:51:56.193Z,70.11
2023-02-16T04:57:01.069Z,69.79
2023-02-16T05:02:05.401Z,69.66
2023-02-16T05:07:09.381Z,69.66
2023-02-16T05:12:33.050Z,69.48
2023-02-16T05:17:36.931Z,69.63
2023-02-16T05:22:40.811Z,69.54
2023-02-16T05:27:44.951Z,68.97
2023-02-16T05:32:49.133Z,69.27
2023-02-16T05:37:52.919Z,68.87
2023-02-16T05:42:57.108Z,68.53
2023-02-16T05:48:03.689Z,68.57
2023-02-16T05:53:08.970Z,68.80
2023-02-16T05:58:12.897Z,67.97
2023-02-16T06:03:16.803Z,68.00
2023-02-16T06:08:20.674Z,67.96
2023-02-16T06:13:25.441Z,67.95
2023-02-16T06:18:30.076Z,67.95
2023-02-16T06:23:33.845Z,67.52
2023-02-16T06:28:37.793Z,67.38
2023-02-16T06:33:41.873Z,67.23
2023-02-16T06:38:46.561Z,67.75
2023-02-16T06:43:50.380Z,67.81
2023-02-16T06:48:55.459Z,67.53
2023-02-16T06:53:59.612Z,67.23
2023-02-16T06:59:03.972Z,67.36
2023-02-16T07:04:08.217Z,67.23
2023-02-16T07:09:12.951Z,67.21
2023-02-16T07:14:17.708Z,67.21
2023-02-16T07:19:21.746Z,67.68
2023-02-16T07:24:25.792Z,67.63
2023-02-16T07:29:30.653Z,67.72
2023-02-16T07:34:34.462Z,68.04
2023-02-16T07:39:38.609Z,67.52
2023-02-16T07:44:42.434Z,68.08
2023-02-16T07:49:46.465Z,67.75
2023-02-16T07:54:50.366Z,67.79
2023-02-16T07:59:56.583Z,67.88
2023-02-16T08:05:01.194Z,67.63
2023-02-16T08:10:07.724Z,67.85
2023-02-16T08:15:12.681Z,67.99
2023-02-16T08:20:16.755Z,67.69
2023-02-16T08:25:20.518Z,67.79
2023-02-16T08:30:26.498Z,67.71
2023-02-16T08:35:33.361Z,67.87
2023-02-16T08:40:37.199Z,67.72
2023-02-16T08:45:47.748Z,67.52
2023-02-16T08:50:55.652Z,67.75
2023-02-16T08:56:01.454Z,68.20
2023-02-16T09:01:09.148Z,67.98
2023-02-16T09:06:14.909Z,68.16
2023-02-16T09:11:19.570Z,68.13
2023-02-16T09:16:25.092Z,68.38
2023-02-16T09:21:34.602Z,68.11
2023-02-16T09:26:43.598Z,67.99
2023-02-16T09:31:47.557Z,68.21
2023-02-16T09:36:51.871Z,68.32
2023-02-16T09:42:34.505Z,68.32
2023-02-16T09:47:48.225Z,68.00
2023-02-16T09:52:52.544Z,68.73
2023-02-16T09:58:19.656Z,68.59
2023-02-16T10:03:42.194Z,68.53
2023-02-16T10:08:51.216Z,68.50
2023-02-16T10:13:59.821Z,68.73
2023-02-16T10:19:12.687Z,69.04
2023-02-16T10:24:17.645Z,68.80
2023-02-16T10:29:24.785Z,69.15
2023-02-16T10:35:00.196Z,69.69
2023-02-16T10:40:23.494Z,69.55
2023-02-16T10:45:32.764Z,69.53
2023-02-16T10:50:53.271Z,69.84
2023-02-16T10:55:59.128Z,69.57
2023-02-16T11:01:22.908Z,69.37
2023-02-16T11:06:27.649Z,69.61
2023-02-16T11:11:40.392Z,70.24
2023-02-16T11:16:44.333Z,69.59
2023-02-16T11:21:52.841Z,70.11
2023-02-16T11:27:26.857Z,70.17
2023-02-16T11:32:35.221Z,70.34
2023-02-16T11:37:41.703Z,70.10
2023-02-16T11:42:52.636Z,70.61
2023-02-16T11:48:02.870Z,70.46
2023-02-16T11:53:13.756Z,70.27
2023-02-16T11:58:28.720Z,70.59
2023-02-16T12:04:00.918Z,70.50
2023-02-16T12:09:14.751Z,70.44
2023-02-16T12:14:39.038Z,71.06
2023-02-16T12:19:49.738Z,71.47
2023-02-16T12:25:06.103Z,71.56
2023-02-16T12:30:20.884Z,71.51
2023-02-16T12:35:37.365Z,71.54
2023-02-16T12:41:24.602Z,71.14
2023-02-16T12:46:32.063Z,70.95
2023-02-16T12:51:47.200Z,71.20
2023-02-16T12:57:08.858Z,70.98
2023-02-16T13:02:23.889Z,71.26
2023-02-16T13:07:41.220Z,70.97
2023-02-16T13:13:17.331Z,71.51
2023-02-16T13:18:29.149Z,71.55
2023-02-16T13:23:48.014Z,70.99
2023-02-16T13:29:07.752Z,71.78
2023-02-16T13:34:39.172Z,71.38
2023-02-16T13:40:02.113Z,70.97
2023-02-16T13:45:19.379Z,71.24
2023-02-16T13:50:23.567Z,71.02
2023-02-16T13:55:35.724Z,71.43
2023-02-16T14:00:46.306Z,71.07
2023-02-16T14:05:54.556Z,71.04
2023-02-16T14:11:06.801Z,71.63
2023-02-16T14:16:12.792Z,71.47
2023-02-16T14:21:48.074Z,71.09
2023-02-16T14:27:03.946Z,71.47
2023-02-16T14:32:40.299Z,71.33
2023-02-16T14:37:59.174Z,71.31
2023-02-16T14:43:08.110Z,70.97
2023-02-16T14:48:36.741Z,71.45
2023-02-16T14:54:11.251Z,71.42
2023-02-16T14:59:46.420Z,71.21
2023-02-16T15:04:50.459Z,71.30
2023-02-16T15:09:58.596Z,71.32
2023-02-16T15:15:21.135Z,71.14
2023-02-16T15:20:32.443Z,71.64
2023-02-16T15:25:40.017Z,71.34
2023-02-16T15:31:00.387Z,70.69
2023-02-16T15:36:10.108Z,71.37
2023-02-16T15:41:16.178Z,71.19
2023-02-16T15:46:40.489Z,71.50
2023-02-16T15:51:45.959Z,71.31
2023-02-16T15:56:53.327Z,71.23
2023-02-16T16:02:04.963Z,71.01
2023-02-16T16:07:14.939Z,70.87
2023-02-16T16:12:21.437Z,70.57
2023-02-16T16:17:33.064Z,70.97
2023-02-16T16:22:43.643Z,71.08
2023-02-16T16:27:49.375Z,71.31
2023-02-16T16:33:02.215Z,71.27
2023-02-16T16:38:18.839Z,71.36
2023-02-16T16:43:30.621Z,70.66
2023-02-16T16:48:40.055Z,71.07
2023-02-16T16:54:04.808Z,70.97
2023-02-16T16:59:10.079Z,70.81
2023-02-16T17:04:13.873Z,70.85
2023-02-16T17:09:17.927Z,71.10
2023-02-16T17:14:22.438Z,70.60
2023-02-16T17:19:30.202Z,70.94
2023-02-16T17:24:33.983Z,71.01
2023-02-16T17:29:38.336Z,70.83
2023-02-16T17:34:42.208Z,71.05
2023-02-16T17:39:46.139Z,71.02
2023-02-16T17:44:50.509Z,70.93
2023-02-16T17:49:54.384Z,71.07
2023-02-16T17:54:58.240Z,71.42
2023-02-16T18:00:02.063Z,71.70
2023-02-16T18:05:09.093Z,71.40
2023-02-16T18:10:38.325Z,71.41
2023-02-16T18:15:46.505Z,71.30
2023-02-16T18:20:50.832Z,71.05
2023-02-16T18:25:54.721Z,71.45
2023-02-16T18:30:59.233Z,71.01
2023-02-16T18:36:03.783Z,71.11
2023-02-16T18:41:09.076Z,70.63
2023-02-16T18:46:12.956Z,71.10
2023-02-16T18:51:21.722Z,71.32
2023-02-16T18:56:26.352Z,71.44
2023-02-16T19:01:33.390Z,71.18
2023-02-16T19:06:37.192Z,70.91
2023-02-16T19:11:41.798Z,70.89
2023-02-16T19:16:47.032Z,71.48
2023-02-16T19:21:51.325Z,71.20
2023-02-16T19:26:55.318Z,71.14
2023-02-16T19:32:00.371Z,71.25
2023-02-16T19:37:04.270Z,71.35
2023-02-16T19:42:08.180Z,71.10
2023-02-16T19:47:11.976Z,71.56
2023-02-16T19:52:15.994Z,71.66
2023-02-16T19:57:20.346Z,71.10
2023-02-16T20:02:24.181Z,71.40
2023-02-16T20:07:28.875Z,71.32
2023-02-16T20:12:32.833Z,71.14
2023-02-16T20:17:36.901Z,71.52
2023-02-16T20:22:40.873Z,71.91
2023-02-16T20:27:44.685Z,71.22
2023-02-16T20:32:49.623Z,71.76
2023-02-16T20:37:54.438Z,71.64
2023-02-16T20:42:58.451Z,71.75
2023-02-16T20:48:04.605Z,71.89
2023-02-16T20:53:08.529Z,71.06
2023-02-16T20:58:12.337Z,71.20
2023-02-16T21:03:16.428Z,71.55
2023-02-16T21:08:20.480Z,71.00
2023-02-16T21:13:24.468Z,71.32
2023-02-16T21:18:28.625Z,71.03
2023-02-16T21:23:32.564Z,71.37
2023-02-16T21:28:36.533Z,71.22
2023-02-16T21:33:40.776Z,71.35
2023-02-16T21:38:45.822Z,70.87
2023-02-16T21:43:49.767Z,70.69
2023-02-16T21:48:53.769Z,71.30
2023-02-16T21:53:59.656Z,71.25
2023-02-16T21:59:04.239Z,70.97
2023-02-16T22:04:09.733Z,71.31
2023-02-16T22:09:18.472Z,71.39
2023-02-16T22:14:22.251Z,70.96
2023-02-16T22:19:27.842Z,71.15
2023-02-16T22:24:31.532Z,71.27
2023-02-16T22:29:35.568Z,71.32
2023-02-16T22:34:39.579Z,70.99
2023-02-16T22:39:43.473Z,70.85
2023-02-16T22:44:48.096Z,70.98
2023-02-16T22:49:52.858Z,71.04
2023-02-16T22:54:56.896Z,70.59
2023-02-16T23:00:01.836Z,70.66
2023-02-16T23:05:06.542Z,70.86
2023-02-16T23:10:10.652Z,70.46
2023-02-16T23:15:15.714Z,71.27
2023-02-16T23:20:19.950Z,70.51
2023-02-16T23:25:35.742Z,71.09
2023-02-16T23:30:42.600Z,71.12
2023-02-16T23:35:46.315Z,70.88
2023-02-16T23:41:00.664Z,71.13
2023-02-16T23:46:05.761Z,70.78
2023-02-16T23:51:12.093Z,70.73
2023-02-16T23:56:23.090Z,70.72
